Time,TemperatureF,DewpointF,PressureIn,WindDirection,WindDirectionDegrees,WindSpeedMPH,WindSpeedGustMPH,Humidity,HourlyPrecipIn,Conditions,Clouds,dailyrainin,SoftwareType,DateUTC
2013-03-13 00:00:00,31.7,25.9,29.95,WNW,288,2.0,4.0,79,0.00,,,0.00,LWC V2.11 B50,2013-03-13 04:00:00,
2013-03-13 00:01:00,31.8,26.0,29.95,SSW,208,0.0,3.0,79,0.00,,,0.00,LWC V2.11 B50,2013-03-13 04:01:00,
2013-03-13 00:02:00,31.8,26.0,29.95,SW,229,1.0,2.0,79,0.00,,,0.00,LWC V2.11 B50,2013-03-13 04:02:00,
2013-03-13 00:04:00,31.7,25.9,29.95,WNW,286,0.0,1.0,79,0.00,,,0.00,LWC V2.11 B50,2013-03-13 04:04:00,
2013-03-13 00:09:00,31.7,25.9,29.95,WSW,238,0.0,0.0,79,0.00,,,0.00,LWC V2.11 B50,2013-03-13 04:09:00,
2013-03-13 00:14:00,31.6,25.8,29.95,WSW,246,0.0,2.0,79,0.00,,,0.00,LWC V2.11 B50,2013-03-13 04:14:00,
2013-03-13 00:19:00,31.6,25.8,29.95,WSW,257,0.0,2.0,79,0.00,,,0.00,LWC V2.11 B50,2013-03-13 04:19:00,
2013-03-13 00:24:00,31.6,25.8,29.95,West,260,0.0,2.0,79,0.00,,,0.00,LWC V2.11 B50,2013-03-13 04:24:00,
2013-03-13 00:29:00,31.6,25.8,29.95,SW,225,0.0,0.0,79,0.00,,,0.00,LWC V2.11 B50,2013-03-13 04:29:00,
2013-03-13 00:34:00,31.6,26.2,29.95,West,266,0.0,2.0,80,0.00,,,0.00,LWC V2.11 B50,2013-03-13 04:34:00,
2013-03-13 00:39:00,31.6,26.2,29.95,West,269,0.0,2.0,80,0.00,,,0.00,LWC V2.11 B50,2013-03-13 04:39:00,
2013-03-13 00:44:00,31.6,25.8,29.95,West,277,0.0,1.0,79,0.00,,,0.00,LWC V2.11 B50,2013-03-13 04:44:00,
2013-03-13 00:49:00,31.7,25.9,29.95,West,269,3.0,9.0,79,0.00,,,0.00,LWC V2.11 B50,2013-03-13 04:49:00,
2013-03-13 00:54:00,31.8,26.0,29.95,WSW,239,0.0,0.0,79,0.00,,,0.00,LWC V2.11 B50,2013-03-13 04:54:00,
2013-03-13 00:59:00,31.8,26.0,29.94,West,266,0.0,2.0,79,0.00,,,0.00,LWC V2.11 B50,2013-03-13 04:59:00,
2013-03-13 01:04:00,31.8,26.0,29.94,West,259,2.0,3.0,79,0.00,,,0.00,LWC V2.11 B50,2013-03-13 05:04:00,
2013-03-13 01:09:00,31.8,25.7,29.94,West,262,1.0,3.0,78,0.00,,,0.00,LWC V2.11 B50,2013-03-13 05:09:00,
2013-03-13 01:14:00,31.8,26.0,29.94,WSW,258,0.0,1.0,79,0.00,,,0.00,LWC V2.11 B50,2013-03-13 05:14:00,
2013-03-13 01:19:00,31.7,25.9,29.94,SW,232,0.0,3.0,79,0.00,,,0.00,LWC V2.11 B50,2013-03-13 05:19:00,
2013-03-13 01:24:00,31.6,25.8,29.94,SSW,211,0.0,5.0,79,0.00,,,0.00,LWC V2.11 B50,2013-03-13 05:24:00,
2013-03-13 01:29:00,31.6,25.8,29.94,SW,232,0.0,3.0,79,0.00,,,0.00,LWC V2.11 B50,2013-03-13 05:29:00,
2013-03-13 01:34:00,31.6,26.2,29.94,SW,236,0.0,1.0,80,0.00,,,0.00,LWC V2.11 B50,2013-03-13 05:34:00,
2013-03-13 01:39:00,31.6,26.2,29.94,SSW,200,1.0,4.0,80,0.00,,,0.00,LWC V2.11 B50,2013-03-13 05:39:00,
2013-03-13 01:44:00,31.5,26.1,29.94,WNW,285,0.0,1.0,80,0.00,,,0.00,LWC V2.11 B50,2013-03-13 05:44:00,
2013-03-13 01:49:00,31.5,26.1,29.94,WSW,253,0.0,3.0,80,0.00,,,0.00,LWC V2.11 B50,2013-03-13 05:49:00,
2013-03-13 01:54:00,31.5,26.1,29.94,West,277,0.0,1.0,80,0.00,,,0.00,LWC V2.11 B50,2013-03-13 05:54:00,
2013-03-13 01:59:00,31.5,26.1,29.93,SW,232,1.0,3.0,80,0.00,,,0.00,LWC V2.11 B50,2013-03-13 05:59:00,
2013-03-13 02:04:00,31.5,26.1,29.93,WNW,289,2.0,3.0,80,0.00,,,0.00,LWC V2.11 B50,2013-03-13 06:04:00,
2013-03-13 02:09:00,31.5,26.1,29.93,SW,225,0.0,2.0,80,0.00,,,0.00,LWC V2.11 B50,2013-03-13 06:09:00,
2013-03-13 02:14:00,31.4,26.0,29.93,West,277,0.0,1.0,80,0.00,,,0.00,LWC V2.11 B50,2013-03-13 06:14:00,
2013-03-13 02:19:00,31.2,25.8,29.93,West,269,0.0,1.0,80,0.00,,,0.00,LWC V2.11 B50,2013-03-13 06:19:00,
2013-03-13 02:24:00,31.1,26.0,29.93,WNW,290,0.0,3.0,81,0.00,,,0.00,LWC V2.11 B50,2013-03-13 06:24:00,
2013-03-13 02:29:00,31.0,25.9,29.93,WSW,242,0.0,4.0,81,0.00,,,0.00,LWC V2.11 B50,2013-03-13 06:29:00,
2013-03-13 02:34:00,30.9,25.8,29.93,SSW,212,0.0,0.0,81,0.00,,,0.00,LWC V2.11 B50,2013-03-13 06:34:00,
2013-03-13 02:39:00,30.8,25.7,29.94,SSW,213,0.0,1.0,81,0.00,,,0.00,LWC V2.11 B50,2013-03-13 06:39:00,
2013-03-13 02:44:00,30.8,25.7,29.93,WNW,283,0.0,4.0,81,0.00,,,0.00,LWC V2.11 B50,2013-03-13 06:44:00,
2013-03-13 02:49:00,30.9,25.5,29.93,West,277,0.0,1.0,80,0.00,,,0.00,LWC V2.11 B50,2013-03-13 06:49:00,
2013-03-13 02:54:00,30.9,25.5,29.93,West,271,0.0,0.0,80,0.00,,,0.00,LWC V2.11 B50,2013-03-13 06:54:00,
2013-03-13 02:59:00,30.8,25.4,29.93,WSW,248,0.0,6.0,80,0.00,,,0.00,LWC V2.11 B50,2013-03-13 06:59:00,
2013-03-13 03:04:00,30.9,25.5,29.93,West,273,1.0,2.0,80,0.00,,,0.00,LWC V2.11 B50,2013-03-13 07:04:00,
2013-03-13 03:09:00,31.0,25.3,29.93,WSW,245,3.0,3.0,79,0.00,,,0.00,LWC V2.11 B50,2013-03-13 07:09:00,
2013-03-13 03:14:00,30.9,25.5,29.92,WNW,288,0.0,3.0,80,0.00,,,0.00,LWC V2.11 B50,2013-03-13 07:14:00,
2013-03-13 03:19:00,30.9,25.2,29.92,WSW,243,1.0,5.0,79,0.00,,,0.00,LWC V2.11 B50,2013-03-13 07:19:00,
2013-03-13 03:24:00,30.8,25.4,29.92,West,270,1.0,3.0,80,0.00,,,0.00,LWC V2.11 B50,2013-03-13 07:24:00,
2013-03-13 03:29:00,30.8,25.1,29.92,WNW,290,0.0,2.0,79,0.00,,,0.00,LWC V2.11 B50,2013-03-13 07:29:00,
2013-03-13 03:34:00,30.7,25.0,29.91,West,267,0.0,1.0,79,0.00,,,0.00,LWC V2.11 B50,2013-03-13 07:34:00,
2013-03-13 03:39:00,30.5,25.1,29.90,SW,231,0.0,2.0,80,0.00,,,0.00,LWC V2.11 B50,2013-03-13 07:39:00,
2013-03-13 03:44:00,30.3,24.9,29.90,SW,215,0.0,0.0,80,0.00,,,0.00,LWC V2.11 B50,2013-03-13 07:44:00,
2013-03-13 03:49:00,30.2,24.8,29.90,SW,220,0.0,1.0,80,0.00,,,0.00,LWC V2.11 B50,2013-03-13 07:49:00,
2013-03-13 03:54:00,30.0,24.9,29.90,WSW,257,0.0,0.0,81,0.00,,,0.00,LWC V2.11 B50,2013-03-13 07:54:00,
2013-03-13 03:59:00,29.9,24.8,29.90,WSW,238,0.0,1.0,81,0.00,,,0.00,LWC V2.11 B50,2013-03-13 07:59:00,
2013-03-13 04:04:00,29.8,24.7,29.90,WSW,250,0.0,3.0,81,0.00,,,0.00,LWC V2.11 B50,2013-03-13 08:04:00,
2013-03-13 04:09:00,29.8,24.7,29.90,WNW,295,1.0,3.0,81,0.00,,,0.00,LWC V2.11 B50,2013-03-13 08:09:00,
2013-03-13 04:14:00,29.7,24.6,29.90,West,278,0.0,3.0,81,0.00,,,0.00,LWC V2.11 B50,2013-03-13 08:14:00,
2013-03-13 04:19:00,29.6,24.8,29.90,West,278,0.0,0.0,82,0.00,,,0.00,LWC V2.11 B50,2013-03-13 08:19:00,
2013-03-13 04:24:00,29.6,24.8,29.90,West,260,0.0,0.0,82,0.00,,,0.00,LWC V2.11 B50,2013-03-13 08:24:00,
2013-03-13 04:29:00,29.2,24.4,29.89,West,260,0.0,0.0,82,0.00,,,0.00,LWC V2.11 B50,2013-03-13 08:29:00,
2013-03-13 04:34:00,28.7,23.9,29.89,West,260,0.0,0.0,82,0.00,,,0.00,LWC V2.11 B50,2013-03-13 08:34:00,
2013-03-13 04:39:00,28.4,24.2,29.89,West,260,0.0,0.0,84,0.00,,,0.00,LWC V2.11 B50,2013-03-13 08:39:00,
2013-03-13 04:44:00,28.2,24.0,29.89,West,260,0.0,0.0,84,0.00,,,0.00,LWC V2.11 B50,2013-03-13 08:44:00,
2013-03-13 04:49:00,27.8,23.6,29.89,West,260,0.0,0.0,84,0.00,,,0.00,LWC V2.11 B50,2013-03-13 08:49:00,
2013-03-13 04:54:00,27.3,23.7,29.89,West,260,0.0,0.0,86,0.00,,,0.00,LWC V2.11 B50,2013-03-13 08:54:00,
2013-03-13 04:59:00,27.1,23.8,29.89,West,260,0.0,0.0,87,0.00,,,0.00,LWC V2.11 B50,2013-03-13 08:59:00,
2013-03-13 05:04:00,27.0,23.9,29.89,West,260,0.0,0.0,88,0.00,,,0.00,LWC V2.11 B50,2013-03-13 09:04:00,
2013-03-13 05:09:00,26.8,23.7,29.89,West,260,0.0,0.0,88,0.00,,,0.00,LWC V2.11 B50,2013-03-13 09:09:00,
2013-03-13 05:14:00,26.6,23.5,29.89,West,259,0.0,0.0,88,0.00,,,0.00,LWC V2.11 B50,2013-03-13 09:14:00,
2013-03-13 05:19:00,26.4,23.3,29.89,SSW,203,0.0,0.0,88,0.00,,,0.00,LWC V2.11 B50,2013-03-13 09:19:00,
2013-03-13 05:24:00,26.2,23.1,29.89,South,190,0.0,0.0,88,0.00,,,0.00,LWC V2.11 B50,2013-03-13 09:24:00,
2013-03-13 05:29:00,26.1,23.3,29.89,South,190,0.0,0.0,89,0.00,,,0.00,LWC V2.11 B50,2013-03-13 09:29:00,
2013-03-13 05:34:00,26.1,23.3,29.89,South,191,0.0,0.0,89,0.00,,,0.00,LWC V2.11 B50,2013-03-13 09:34:00,
2013-03-13 05:39:00,26.0,23.2,29.89,South,190,0.0,0.0,89,0.00,,,0.00,LWC V2.11 B50,2013-03-13 09:39:00,
2013-03-13 05:44:00,25.9,23.1,29.89,South,191,0.0,0.0,89,0.00,,,0.00,LWC V2.11 B50,2013-03-13 09:44:00,
2013-03-13 05:49:00,26.5,24.0,29.89,South,183,1.0,2.0,90,0.00,,,0.00,LWC V2.11 B50,2013-03-13 09:49:00,
2013-03-13 05:54:00,27.4,24.6,29.89,SSW,198,0.0,1.0,89,0.00,,,0.00,LWC V2.11 B50,2013-03-13 09:54:00,
2013-03-13 05:59:00,28.0,24.9,29.89,South,190,1.0,1.0,88,0.00,,,0.00,LWC V2.11 B50,2013-03-13 09:59:00,
2013-03-13 06:04:00,28.5,25.1,29.89,SW,225,0.0,3.0,87,0.00,,,0.00,LWC V2.11 B50,2013-03-13 10:04:00,
2013-03-13 06:09:00,28.8,25.4,29.89,SSE,153,0.0,2.0,87,0.00,,,0.00,LWC V2.11 B50,2013-03-13 10:09:00,
2013-03-13 06:14:00,29.2,25.8,29.89,WSW,258,1.0,3.0,87,0.00,,,0.00,LWC V2.11 B50,2013-03-13 10:14:00,
2013-03-13 06:19:00,29.4,26.0,29.89,WNW,298,0.0,0.0,87,0.00,,,0.00,LWC V2.11 B50,2013-03-13 10:19:00,
2013-03-13 06:24:00,29.5,26.1,29.89,SW,229,2.0,3.0,87,0.00,,,0.00,LWC V2.11 B50,2013-03-13 10:24:00,
2013-03-13 06:29:00,29.5,26.4,29.89,West,264,0.0,6.0,88,0.00,,,0.00,LWC V2.11 B50,2013-03-13 10:29:00,
2013-03-13 06:34:00,29.4,26.3,29.89,WSW,252,0.0,2.0,88,0.00,,,0.00,LWC V2.11 B50,2013-03-13 10:34:00,
2013-03-13 06:39:00,29.3,26.5,29.89,WNW,287,0.0,1.0,89,0.00,,,0.00,LWC V2.11 B50,2013-03-13 10:39:00,
2013-03-13 06:44:00,29.3,26.5,29.89,WNW,297,0.0,1.0,89,0.00,,,0.00,LWC V2.11 B50,2013-03-13 10:44:00,
2013-03-13 06:49:00,29.2,26.4,29.89,West,277,0.0,1.0,89,0.00,,,0.00,LWC V2.11 B50,2013-03-13 10:49:00,
2013-03-13 06:54:00,29.2,26.6,29.89,SSW,212,0.0,2.0,90,0.00,,,0.00,LWC V2.11 B50,2013-03-13 10:54:00,
2013-03-13 06:59:00,29.3,26.7,29.89,WNW,291,1.0,2.0,90,0.00,,,0.00,LWC V2.11 B50,2013-03-13 10:59:00,
2013-03-13 07:04:00,29.3,26.7,29.89,SW,225,4.0,5.0,90,0.00,,,0.00,LWC V2.11 B50,2013-03-13 11:04:00,
2013-03-13 07:09:00,29.4,26.6,29.89,WNW,285,0.0,3.0,89,0.00,,,0.00,LWC V2.11 B50,2013-03-13 11:09:00,
2013-03-13 07:14:00,29.4,26.6,29.89,SW,217,1.0,8.0,89,0.00,,,0.00,LWC V2.11 B50,2013-03-13 11:14:00,
2013-03-13 07:19:00,29.5,26.7,29.89,SW,215,0.0,3.0,89,0.00,,,0.00,LWC V2.11 B50,2013-03-13 11:19:00,
2013-03-13 07:24:00,29.4,26.6,29.89,SW,236,1.0,1.0,89,0.00,,,0.00,LWC V2.11 B50,2013-03-13 11:24:00,
2013-03-13 07:29:00,29.4,26.3,29.89,SW,215,0.0,1.0,88,0.00,,,0.00,LWC V2.11 B50,2013-03-13 11:29:00,
2013-03-13 07:34:00,29.3,26.2,29.89,SW,225,0.0,2.0,88,0.00,,,0.00,LWC V2.11 B50,2013-03-13 11:34:00,
2013-03-13 07:39:00,29.3,26.2,29.89,WSW,255,4.0,5.0,88,0.00,,,0.00,LWC V2.11 B50,2013-03-13 11:39:00,
2013-03-13 07:44:00,29.4,26.3,29.89,West,262,3.0,6.0,88,0.00,,,0.00,LWC V2.11 B50,2013-03-13 11:44:00,
2013-03-13 07:49:00,29.5,26.4,29.89,WNW,291,0.0,1.0,88,0.00,,,0.00,LWC V2.11 B50,2013-03-13 11:49:00,
2013-03-13 07:54:00,29.7,26.3,29.89,West,271,2.0,5.0,87,0.00,,,0.00,LWC V2.11 B50,2013-03-13 11:54:00,
2013-03-13 07:59:00,29.8,26.4,29.89,WSW,243,0.0,3.0,87,0.00,,,0.00,LWC V2.11 B50,2013-03-13 11:59:00,
2013-03-13 08:04:00,29.8,26.4,29.89,SW,221,1.0,4.0,87,0.00,,,0.00,LWC V2.11 B50,2013-03-13 12:04:00,
2013-03-13 08:09:00,29.8,26.4,29.89,SW,226,1.0,5.0,87,0.00,,,0.00,LWC V2.11 B50,2013-03-13 12:09:00,
2013-03-13 08:14:00,29.9,26.5,29.89,West,271,5.0,5.0,87,0.00,,,0.00,LWC V2.11 B50,2013-03-13 12:14:00,
2013-03-13 08:19:00,30.0,26.3,29.89,WSW,248,2.0,7.0,86,0.00,,,0.00,LWC V2.11 B50,2013-03-13 12:19:00,
2013-03-13 08:24:00,30.0,26.3,29.89,WSW,250,0.0,2.0,86,0.00,,,0.00,LWC V2.11 B50,2013-03-13 12:24:00,
2013-03-13 08:29:00,30.0,26.3,29.89,WSW,253,3.0,4.0,86,0.00,,,0.00,LWC V2.11 B50,2013-03-13 12:29:00,
2013-03-13 08:34:00,30.2,26.5,29.89,SW,228,0.0,2.0,86,0.00,,,0.00,LWC V2.11 B50,2013-03-13 12:34:00,
2013-03-13 08:39:00,30.3,26.6,29.89,WNW,303,0.0,1.0,86,0.00,,,0.00,LWC V2.11 B50,2013-03-13 12:39:00,
2013-03-13 08:44:00,30.5,26.5,29.90,WNW,285,5.0,5.0,85,0.00,,,0.00,LWC V2.11 B50,2013-03-13 12:44:00,
2013-03-13 08:49:00,30.5,26.5,29.89,NW,309,0.0,11.0,85,0.00,,,0.00,LWC V2.11 B50,2013-03-13 12:49:00,
2013-03-13 08:54:00,30.5,26.5,29.89,WNW,293,3.0,5.0,85,0.00,,,0.00,LWC V2.11 B50,2013-03-13 12:54:00,
2013-03-13 08:59:00,30.6,26.6,29.89,West,265,0.0,6.0,85,0.00,,,0.00,LWC V2.11 B50,2013-03-13 12:59:00,
2013-03-13 09:04:00,30.6,26.6,29.89,West,264,2.0,3.0,85,0.00,,,0.00,LWC V2.11 B50,2013-03-13 13:04:00,
2013-03-13 09:09:00,30.6,26.6,29.90,WNW,288,1.0,4.0,85,0.00,,,0.00,LWC V2.11 B50,2013-03-13 13:09:00,
2013-03-13 09:14:00,30.7,26.4,29.90,West,278,0.0,7.0,84,0.00,,,0.00,LWC V2.11 B50,2013-03-13 13:14:00,
2013-03-13 09:19:00,30.9,26.6,29.90,South,176,1.0,1.0,84,0.00,,,0.00,LWC V2.11 B50,2013-03-13 13:19:00,
2013-03-13 09:24:00,31.1,26.8,29.90,SSW,212,4.0,4.0,84,0.00,,,0.00,LWC V2.11 B50,2013-03-13 13:24:00,
2013-03-13 09:29:00,31.1,26.3,29.90,WSW,245,12.0,13.0,82,0.00,,,0.00,LWC V2.11 B50,2013-03-13 13:29:00,
2013-03-13 09:34:00,31.1,26.3,29.90,WSW,253,2.0,8.0,82,0.00,,,0.00,LWC V2.11 B50,2013-03-13 13:34:00,
2013-03-13 09:39:00,31.1,26.3,29.90,WSW,243,3.0,4.0,82,0.00,,,0.00,LWC V2.11 B50,2013-03-13 13:39:00,
2013-03-13 09:44:00,31.2,26.4,29.90,West,265,2.0,5.0,82,0.00,,,0.00,LWC V2.11 B50,2013-03-13 13:44:00,
2013-03-13 09:50:00,31.3,26.5,29.90,NW,305,2.0,8.0,82,0.00,,,0.00,LWC V2.11 B50,2013-03-13 13:50:00,
2013-03-13 09:55:00,31.4,26.6,29.90,WSW,249,1.0,3.0,82,0.00,,,0.00,LWC V2.11 B50,2013-03-13 13:55:00,
2013-03-13 10:00:00,31.4,26.3,29.90,West,274,1.0,4.0,81,0.00,,,0.00,LWC V2.11 B50,2013-03-13 14:00:00,
2013-03-13 10:05:00,31.4,26.0,29.90,WNW,283,8.0,8.0,80,0.00,,,0.00,LWC V2.11 B50,2013-03-13 14:05:00,
2013-03-13 10:10:00,31.5,26.1,29.89,WSW,255,2.0,6.0,80,0.00,,,0.00,LWC V2.11 B50,2013-03-13 14:10:00,
2013-03-13 10:15:00,31.6,25.5,29.89,SW,219,6.0,17.0,78,0.00,,,0.00,LWC V2.11 B50,2013-03-13 14:15:00,
2013-03-13 10:20:00,31.8,25.7,29.90,WNW,282,11.0,16.0,78,0.00,,,0.00,LWC V2.11 B50,2013-03-13 14:20:00,
2013-03-13 10:25:00,31.8,25.7,29.90,WNW,294,2.0,14.0,78,0.00,,,0.00,LWC V2.11 B50,2013-03-13 14:25:00,
2013-03-13 10:30:00,31.0,26.5,29.91,WNW,283,10.0,11.0,83,0.00,,,0.00,LWC V2.11 B50,2013-03-13 14:30:00,
2013-03-13 10:35:00,29.0,25.9,29.91,WNW,295,2.0,10.0,88,0.00,,,0.00,LWC V2.11 B50,2013-03-13 14:35:00,
2013-03-13 10:40:00,28.4,25.8,29.91,West,269,3.0,6.0,90,0.00,,,0.00,LWC V2.11 B50,2013-03-13 14:40:00,
2013-03-13 10:45:00,28.3,26.0,29.91,NNW,337,6.0,8.0,91,0.00,,,0.00,LWC V2.11 B50,2013-03-13 14:45:00,
2013-03-13 10:50:00,28.4,26.1,29.91,NW,314,5.0,5.0,91,0.00,,,0.00,LWC V2.11 B50,2013-03-13 14:50:00,
2013-03-13 10:55:00,29.0,26.7,29.91,WNW,288,5.0,7.0,91,0.00,,,0.00,LWC V2.11 B50,2013-03-13 14:55:00,
2013-03-13 11:00:00,29.7,26.6,29.91,WSW,238,9.0,15.0,88,0.00,,,0.00,LWC V2.11 B50,2013-03-13 15:00:00,
2013-03-13 11:05:00,30.1,26.4,29.91,West,276,2.0,12.0,86,0.00,,,0.00,LWC V2.11 B50,2013-03-13 15:05:00,
2013-03-13 11:10:00,30.7,26.2,29.91,WSW,247,2.0,7.0,83,0.00,,,0.00,LWC V2.11 B50,2013-03-13 15:10:00,
2013-03-13 11:15:00,31.6,26.2,29.92,West,281,8.0,11.0,80,0.00,,,0.00,LWC V2.11 B50,2013-03-13 15:15:00,
2013-03-13 11:20:00,31.8,24.8,29.92,WSW,240,2.0,12.0,75,0.00,,,0.00,LWC V2.11 B50,2013-03-13 15:20:00,
2013-03-13 11:25:00,32.1,23.8,29.92,WSW,256,9.0,14.0,71,0.00,,,0.00,LWC V2.11 B50,2013-03-13 15:25:00,
2013-03-13 11:30:00,32.3,24.3,29.92,WSW,249,3.0,14.0,72,0.00,,,0.00,LWC V2.11 B50,2013-03-13 15:30:00,
2013-03-13 11:35:00,32.5,24.8,29.92,WNW,289,4.0,5.0,73,0.00,,,0.00,LWC V2.11 B50,2013-03-13 15:35:00,
2013-03-13 11:40:00,32.6,24.6,29.92,NNW,334,2.0,7.0,72,0.00,,,0.00,LWC V2.11 B50,2013-03-13 15:40:00,
2013-03-13 11:45:00,32.2,25.5,29.93,WNW,302,3.0,10.0,76,0.00,,,0.00,LWC V2.11 B50,2013-03-13 15:45:00,
2013-03-13 11:50:00,31.5,26.4,29.93,NW,315,7.0,10.0,81,0.00,,,0.00,LWC V2.11 B50,2013-03-13 15:50:00,
2013-03-13 11:55:00,31.1,26.3,29.93,WNW,302,10.0,12.0,82,0.00,,,0.00,LWC V2.11 B50,2013-03-13 15:55:00,
2013-03-13 12:00:00,30.6,25.8,29.93,NW,304,4.0,11.0,82,0.00,,,0.00,LWC V2.11 B50,2013-03-13 16:00:00,
2013-03-13 12:05:00,29.5,25.6,29.94,WNW,286,4.0,13.0,85,0.00,,,0.00,LWC V2.11 B50,2013-03-13 16:05:00,
2013-03-13 12:10:00,28.5,25.4,29.94,NW,305,2.0,5.0,88,0.00,,,0.00,LWC V2.11 B50,2013-03-13 16:10:00,
2013-03-13 12:15:00,28.2,25.7,29.94,WNW,296,1.0,8.0,90,0.00,,,0.00,LWC V2.11 B50,2013-03-13 16:15:00,
2013-03-13 12:20:00,28.1,25.6,29.94,NW,316,4.0,11.0,90,0.00,,,0.00,LWC V2.11 B50,2013-03-13 16:20:00,
2013-03-13 12:25:00,28.1,25.6,29.94,WNW,295,3.0,8.0,90,0.00,,,0.00,LWC V2.11 B50,2013-03-13 16:25:00,
2013-03-13 12:30:00,28.0,25.2,29.94,NNW,337,5.0,11.0,89,0.00,,,0.00,LWC V2.11 B50,2013-03-13 16:30:00,
2013-03-13 12:35:00,27.7,24.9,29.94,NW,305,3.0,11.0,89,0.00,,,0.00,LWC V2.11 B50,2013-03-13 16:35:00,
2013-03-13 12:40:00,27.7,25.2,29.94,West,277,3.0,9.0,90,0.00,,,0.00,LWC V2.11 B50,2013-03-13 16:40:00,
2013-03-13 12:45:00,28.0,25.5,29.95,NW,310,3.0,7.0,90,0.00,,,0.00,LWC V2.11 B50,2013-03-13 16:45:00,
2013-03-13 12:50:00,27.7,24.9,29.95,NNW,329,3.0,14.0,89,0.00,,,0.00,LWC V2.11 B50,2013-03-13 16:50:00,
2013-03-13 12:55:00,27.5,25.0,29.95,WNW,298,1.0,6.0,90,0.00,,,0.00,LWC V2.11 B50,2013-03-13 16:55:00,
2013-03-13 13:00:00,27.5,25.2,29.95,NW,316,1.0,5.0,91,0.00,,,0.00,LWC V2.11 B50,2013-03-13 17:00:00,
2013-03-13 13:05:00,27.6,25.3,29.95,NNW,328,0.0,2.0,91,0.00,,,0.00,LWC V2.11 B50,2013-03-13 17:05:00,
2013-03-13 13:10:00,27.8,25.5,29.95,WNW,294,1.0,10.0,91,0.00,,,0.00,LWC V2.11 B50,2013-03-13 17:10:00,
2013-03-13 13:15:00,28.1,25.8,29.95,NW,312,2.0,9.0,91,0.00,,,0.00,LWC V2.11 B50,2013-03-13 17:15:00,
2013-03-13 13:20:00,28.8,26.5,29.95,WSW,257,3.0,6.0,91,0.00,,,0.00,LWC V2.11 B50,2013-03-13 17:20:00,
2013-03-13 13:25:00,29.2,26.6,29.95,NW,309,1.0,4.0,90,0.00,,,0.00,LWC V2.11 B50,2013-03-13 17:25:00,
2013-03-13 13:30:00,29.6,26.8,29.95,NNW,332,6.0,6.0,89,0.00,,,0.00,LWC V2.11 B50,2013-03-13 17:30:00,
2013-03-13 13:35:00,29.8,26.7,29.95,WNW,298,3.0,4.0,88,0.00,,,0.00,LWC V2.11 B50,2013-03-13 17:35:00,
2013-03-13 13:40:00,30.5,26.5,29.95,WNW,287,4.0,9.0,85,0.00,,,0.00,LWC V2.11 B50,2013-03-13 17:40:00,
2013-03-13 13:45:00,30.4,25.6,29.95,NW,325,2.0,5.0,82,0.00,,,0.00,LWC V2.11 B50,2013-03-13 17:45:00,
2013-03-13 13:50:00,30.8,26.3,29.95,WNW,297,2.0,5.0,83,0.00,,,0.00,LWC V2.11 B50,2013-03-13 17:50:00,
2013-03-13 13:55:00,30.6,25.5,29.95,WNW,301,5.0,8.0,81,0.00,,,0.00,LWC V2.11 B50,2013-03-13 17:55:00,
2013-03-13 14:00:00,29.5,25.8,29.95,NW,308,3.0,14.0,86,0.00,,,0.00,LWC V2.11 B50,2013-03-13 18:00:00,
2013-03-13 14:05:00,28.4,25.8,29.96,NW,321,3.0,13.0,90,0.00,,,0.00,LWC V2.11 B50,2013-03-13 18:05:00,
2013-03-13 14:10:00,27.8,25.3,29.96,West,268,12.0,12.0,90,0.00,,,0.00,LWC V2.11 B50,2013-03-13 18:10:00,
2013-03-13 14:15:00,27.7,25.4,29.96,NW,324,2.0,3.0,91,0.00,,,0.00,LWC V2.11 B50,2013-03-13 18:15:00,
2013-03-13 14:20:00,27.9,25.4,29.96,West,274,7.0,8.0,90,0.00,,,0.00,LWC V2.11 B50,2013-03-13 18:20:00,
2013-03-13 14:25:00,27.7,25.2,29.96,WNW,293,3.0,5.0,90,0.00,,,0.00,LWC V2.11 B50,2013-03-13 18:25:00,
2013-03-13 14:30:00,27.9,25.4,29.96,NW,316,3.0,6.0,90,0.00,,,0.00,LWC V2.11 B50,2013-03-13 18:30:00,
2013-03-13 14:35:00,27.4,24.9,29.96,WNW,300,4.0,6.0,90,0.00,,,0.00,LWC V2.11 B50,2013-03-13 18:35:00,
2013-03-13 14:40:00,27.2,24.7,29.96,WNW,298,3.0,5.0,90,0.00,,,0.00,LWC V2.11 B50,2013-03-13 18:40:00,
2013-03-13 14:45:00,27.3,24.8,29.96,NW,305,2.0,3.0,90,0.00,,,0.00,LWC V2.11 B50,2013-03-13 18:45:00,
2013-03-13 14:50:00,27.4,24.9,29.96,NW,304,2.0,7.0,90,0.00,,,0.00,LWC V2.11 B50,2013-03-13 18:50:00,
2013-03-13 14:55:00,27.1,24.3,29.96,WNW,294,6.0,9.0,89,0.00,,,0.00,LWC V2.11 B50,2013-03-13 18:55:00,
2013-03-13 15:00:00,26.9,24.1,29.97,WNW,286,4.0,8.0,89,0.00,,,0.00,LWC V2.11 B50,2013-03-13 19:00:00,
2013-03-13 15:05:00,27.1,23.8,29.97,WNW,283,0.0,2.0,87,0.00,,,0.00,LWC V2.11 B50,2013-03-13 19:05:00,
2013-03-13 15:10:00,27.3,22.8,29.96,West,260,6.0,13.0,83,0.00,,,0.00,LWC V2.11 B50,2013-03-13 19:10:00,
2013-03-13 15:15:00,27.6,21.7,29.96,West,277,6.0,16.0,78,0.00,,,0.00,LWC V2.11 B50,2013-03-13 19:15:00,
2013-03-13 15:20:00,28.5,21.9,29.96,WNW,293,3.0,10.0,76,0.00,,,0.00,LWC V2.11 B50,2013-03-13 19:20:00,
2013-03-13 15:25:00,28.8,20.6,29.97,West,276,5.0,13.0,71,0.00,,,0.00,LWC V2.11 B50,2013-03-13 19:25:00,
2013-03-13 15:30:00,28.6,20.1,29.97,NNW,342,2.0,15.0,70,0.00,,,0.00,LWC V2.11 B50,2013-03-13 19:30:00,
2013-03-13 15:35:00,28.5,20.3,29.97,NW,310,5.0,7.0,71,0.00,,,0.00,LWC V2.11 B50,2013-03-13 19:35:00,
2013-03-13 15:40:00,28.3,19.8,29.97,WSW,243,12.0,12.0,70,0.00,,,0.00,LWC V2.11 B50,2013-03-13 19:40:00,
2013-03-13 15:45:00,28.3,20.5,29.98,WNW,288,7.0,18.0,72,0.00,,,0.00,LWC V2.11 B50,2013-03-13 19:45:00,
2013-03-13 15:50:00,28.3,20.1,29.97,SW,221,4.0,8.0,71,0.00,,,0.00,LWC V2.11 B50,2013-03-13 19:50:00,
2013-03-13 15:55:00,28.2,20.0,29.98,WSW,254,3.0,10.0,71,0.00,,,0.00,LWC V2.11 B50,2013-03-13 19:55:00,
2013-03-13 16:00:00,28.3,20.8,29.98,NNW,329,2.0,7.0,73,0.00,,,0.00,LWC V2.11 B50,2013-03-13 20:00:00,
2013-03-13 16:05:00,27.8,20.6,29.98,WNW,298,2.0,12.0,74,0.00,,,0.00,LWC V2.11 B50,2013-03-13 20:05:00,
2013-03-13 16:10:00,27.4,20.5,29.98,NW,309,6.0,13.0,75,0.00,,,0.00,LWC V2.11 B50,2013-03-13 20:10:00,
2013-03-13 16:15:00,27.0,20.8,29.99,WNW,290,2.0,10.0,77,0.00,,,0.00,LWC V2.11 B50,2013-03-13 20:15:00,
2013-03-13 16:20:00,27.1,21.2,29.99,WNW,291,4.0,15.0,78,0.00,,,0.00,LWC V2.11 B50,2013-03-13 20:20:00,
2013-03-13 16:25:00,27.4,20.2,29.99,West,276,1.0,14.0,74,0.00,,,0.00,LWC V2.11 B50,2013-03-13 20:25:00,
2013-03-13 16:30:00,27.6,20.4,29.99,WNW,290,4.0,15.0,74,0.00,,,0.00,LWC V2.11 B50,2013-03-13 20:30:00,
2013-03-13 16:35:00,27.7,20.2,29.99,WSW,253,6.0,8.0,73,0.00,,,0.00,LWC V2.11 B50,2013-03-13 20:35:00,
2013-03-13 16:40:00,27.8,20.9,29.99,WNW,295,10.0,15.0,75,0.00,,,0.00,LWC V2.11 B50,2013-03-13 20:40:00,
2013-03-13 16:45:00,27.4,20.8,30.00,WNW,290,4.0,5.0,76,0.00,,,0.00,LWC V2.11 B50,2013-03-13 20:45:00,
2013-03-13 16:50:00,27.3,20.8,30.00,WNW,289,2.0,5.0,76,0.00,,,0.00,LWC V2.11 B50,2013-03-13 20:50:00,
2013-03-13 16:55:00,27.2,20.7,30.00,NW,309,7.0,8.0,76,0.00,,,0.00,LWC V2.11 B50,2013-03-13 20:55:00,
2013-03-13 17:00:00,27.0,20.8,30.00,West,269,2.0,7.0,77,0.00,,,0.00,LWC V2.11 B50,2013-03-13 21:00:00,
2013-03-13 17:05:00,26.9,21.0,30.00,WSW,255,3.0,14.0,78,0.00,,,0.00,LWC V2.11 B50,2013-03-13 21:05:00,
2013-03-13 17:10:00,26.6,21.3,30.00,WNW,298,5.0,14.0,80,0.00,,,0.00,LWC V2.11 B50,2013-03-13 21:10:00,
2013-03-13 17:15:00,26.3,21.0,30.01,WNW,289,5.0,14.0,80,0.00,,,0.00,LWC V2.11 B50,2013-03-13 21:15:00,
2013-03-13 17:20:00,26.2,21.5,30.01,WNW,288,4.0,5.0,82,0.00,,,0.00,LWC V2.11 B50,2013-03-13 21:20:00,
2013-03-13 17:25:00,25.7,22.1,30.01,WNW,289,3.0,9.0,86,0.00,,,0.00,LWC V2.11 B50,2013-03-13 21:25:00,
2013-03-13 17:30:00,24.9,22.1,30.01,West,277,7.0,8.0,89,0.00,,,0.00,LWC V2.11 B50,2013-03-13 21:30:00,
2013-03-13 17:35:00,24.6,22.1,30.01,WSW,242,4.0,7.0,90,0.00,,,0.00,LWC V2.11 B50,2013-03-13 21:35:00,
2013-03-13 17:40:00,24.6,22.4,30.01,WNW,297,2.0,5.0,91,0.00,,,0.00,LWC V2.11 B50,2013-03-13 21:40:00,
2013-03-13 17:45:00,24.6,22.4,30.01,WNW,293,1.0,5.0,91,0.00,,,0.00,LWC V2.11 B50,2013-03-13 21:45:00,
2013-03-13 17:50:00,24.7,22.5,30.01,NW,320,6.0,7.0,91,0.00,,,0.00,LWC V2.11 B50,2013-03-13 21:50:00,
2013-03-13 17:55:00,24.6,22.4,30.02,WNW,289,1.0,3.0,91,0.00,,,0.00,LWC V2.11 B50,2013-03-13 21:55:00,
2013-03-13 18:00:00,24.6,22.4,30.02,NW,320,1.0,6.0,91,0.00,,,0.00,LWC V2.11 B50,2013-03-13 22:00:00,
2013-03-13 18:05:00,24.4,22.2,30.02,West,281,4.0,8.0,91,0.00,,,0.00,LWC V2.11 B50,2013-03-13 22:05:00,
2013-03-13 18:10:00,24.3,22.1,30.02,West,270,1.0,4.0,91,0.00,,,0.00,LWC V2.11 B50,2013-03-13 22:10:00,
2013-03-13 18:15:00,24.3,22.1,30.02,WNW,288,1.0,6.0,91,0.00,,,0.00,LWC V2.11 B50,2013-03-13 22:15:00,
2013-03-13 18:20:00,24.2,22.0,30.03,NW,310,1.0,6.0,91,0.00,,,0.00,LWC V2.11 B50,2013-03-13 22:20:00,
2013-03-13 18:25:00,23.9,21.7,30.03,WNW,291,3.0,7.0,91,0.00,,,0.00,LWC V2.11 B50,2013-03-13 22:25:00,
2013-03-13 18:30:00,23.6,21.4,30.03,WNW,287,2.0,8.0,91,0.00,,,0.00,LWC V2.11 B50,2013-03-13 22:30:00,
2013-03-13 18:35:00,23.5,21.0,30.03,WSW,258,4.0,10.0,90,0.00,,,0.00,LWC V2.11 B50,2013-03-13 22:35:00,
2013-03-13 18:40:00,23.5,21.3,30.03,WNW,302,2.0,6.0,91,0.00,,,0.00,LWC V2.11 B50,2013-03-13 22:40:00,
2013-03-13 18:45:00,23.5,21.3,30.03,NW,323,1.0,3.0,91,0.00,,,0.00,LWC V2.11 B50,2013-03-13 22:45:00,
2013-03-13 18:50:00,23.5,21.3,30.03,West,277,0.0,2.0,91,0.00,,,0.00,LWC V2.11 B50,2013-03-13 22:50:00,
2013-03-13 18:55:00,23.5,21.3,30.04,WNW,284,1.0,7.0,91,0.00,,,0.00,LWC V2.11 B50,2013-03-13 22:55:00,
2013-03-13 19:00:00,23.5,21.3,30.04,WNW,291,2.0,3.0,91,0.00,,,0.00,LWC V2.11 B50,2013-03-13 23:00:00,
2013-03-13 19:05:00,23.5,21.3,30.04,NW,309,2.0,6.0,91,0.00,,,0.00,LWC V2.11 B50,2013-03-13 23:05:00,
2013-03-13 19:10:00,23.5,21.3,30.04,NNW,327,1.0,3.0,91,0.00,,,0.00,LWC V2.11 B50,2013-03-13 23:10:00,
2013-03-13 19:15:00,23.6,21.4,30.04,NW,320,2.0,4.0,91,0.00,,,0.00,LWC V2.11 B50,2013-03-13 23:15:00,
2013-03-13 19:20:00,23.6,21.4,30.04,WNW,293,2.0,9.0,91,0.00,,,0.00,LWC V2.11 B50,2013-03-13 23:20:00,
2013-03-13 19:25:00,23.6,21.4,30.04,West,263,4.0,8.0,91,0.00,,,0.00,LWC V2.11 B50,2013-03-13 23:25:00,
2013-03-13 19:30:00,23.5,21.3,30.04,WNW,290,3.0,5.0,91,0.00,,,0.00,LWC V2.11 B50,2013-03-13 23:30:00,
2013-03-13 19:35:00,23.5,21.5,30.05,NW,317,0.0,5.0,92,0.00,,,0.00,LWC V2.11 B50,2013-03-13 23:35:00,
2013-03-13 19:40:00,23.5,21.5,30.05,WSW,240,5.0,8.0,92,0.00,,,0.00,LWC V2.11 B50,2013-03-13 23:40:00,
2013-03-13 19:45:00,23.5,21.5,30.05,NW,305,4.0,7.0,92,0.00,,,0.00,LWC V2.11 B50,2013-03-13 23:45:00,
2013-03-13 19:50:00,23.5,21.5,30.05,West,273,2.0,2.0,92,0.00,,,0.00,LWC V2.11 B50,2013-03-13 23:50:00,
2013-03-13 19:55:00,23.5,21.5,30.05,NW,326,3.0,3.0,92,0.00,,,0.00,LWC V2.11 B50,2013-03-13 23:55:00,
2013-03-13 20:00:00,23.6,21.6,30.05,WNW,301,2.0,4.0,92,0.00,,,0.00,LWC V2.11 B50,2013-03-14 00:00:00,
2013-03-13 20:05:00,23.6,21.6,30.05,WSW,250,5.0,5.0,92,0.00,,,0.00,LWC V2.11 B50,2013-03-14 00:05:00,
2013-03-13 20:10:00,23.6,21.6,30.06,NW,321,4.0,6.0,92,0.00,,,0.00,LWC V2.11 B50,2013-03-14 00:10:00,
2013-03-13 20:15:00,23.7,21.5,30.06,NW,316,2.0,9.0,91,0.00,,,0.00,LWC V2.11 B50,2013-03-14 00:15:00,
2013-03-13 20:20:00,23.7,21.5,30.06,WNW,301,2.0,7.0,91,0.00,,,0.00,LWC V2.11 B50,2013-03-14 00:20:00,
2013-03-13 20:25:00,23.7,21.5,30.06,WNW,301,3.0,8.0,91,0.00,,,0.00,LWC V2.11 B50,2013-03-14 00:25:00,
2013-03-13 20:30:00,23.8,21.8,30.06,WNW,293,1.0,3.0,92,0.00,,,0.00,LWC V2.11 B50,2013-03-14 00:30:00,
2013-03-13 20:35:00,23.8,21.8,30.06,WNW,301,2.0,6.0,92,0.00,,,0.00,LWC V2.11 B50,2013-03-14 00:35:00,
2013-03-13 20:40:00,23.8,21.8,30.07,NW,318,4.0,10.0,92,0.00,,,0.00,LWC V2.11 B50,2013-03-14 00:40:00,
2013-03-13 20:45:00,23.8,21.6,30.07,West,279,3.0,3.0,91,0.00,,,0.00,LWC V2.11 B50,2013-03-14 00:45:00,
2013-03-13 20:50:00,23.8,21.6,30.07,West,281,2.0,7.0,91,0.00,,,0.00,LWC V2.11 B50,2013-03-14 00:50:00,
2013-03-13 20:55:00,23.8,21.6,30.07,NW,304,4.0,6.0,91,0.00,,,0.00,LWC V2.11 B50,2013-03-14 00:55:00,
2013-03-13 21:00:00,23.8,21.6,30.07,WNW,301,1.0,8.0,91,0.00,,,0.00,LWC V2.11 B50,2013-03-14 01:00:00,
2013-03-13 21:05:00,23.8,21.6,30.07,NW,307,4.0,12.0,91,0.00,,,0.00,LWC V2.11 B50,2013-03-14 01:05:00,
2013-03-13 21:10:00,23.6,21.4,30.07,NW,309,2.0,7.0,91,0.00,,,0.00,LWC V2.11 B50,2013-03-14 01:10:00,
2013-03-13 21:15:00,23.4,21.2,30.07,NW,305,0.0,3.0,91,0.00,,,0.00,LWC V2.11 B50,2013-03-14 01:15:00,
2013-03-13 21:20:00,23.2,21.0,30.07,NNW,329,3.0,3.0,91,0.00,,,0.00,LWC V2.11 B50,2013-03-14 01:20:00,
2013-03-13 21:25:00,23.3,21.1,30.07,WNW,302,0.0,4.0,91,0.00,,,0.00,LWC V2.11 B50,2013-03-14 01:25:00,
2013-03-13 21:30:00,23.4,21.2,30.07,WNW,290,1.0,3.0,91,0.00,,,0.00,LWC V2.11 B50,2013-03-14 01:30:00,
2013-03-13 21:35:00,23.5,21.3,30.07,WNW,287,0.0,2.0,91,0.00,,,0.00,LWC V2.11 B50,2013-03-14 01:35:00,
2013-03-13 21:40:00,23.6,21.4,30.07,NW,314,1.0,4.0,91,0.00,,,0.00,LWC V2.11 B50,2013-03-14 01:40:00,
2013-03-13 21:45:00,23.7,21.2,30.07,WNW,292,1.0,10.0,90,0.00,,,0.00,LWC V2.11 B50,2013-03-14 01:45:00,
2013-03-13 21:50:00,23.8,21.3,30.07,WNW,290,1.0,2.0,90,0.00,,,0.00,LWC V2.11 B50,2013-03-14 01:50:00,
2013-03-13 21:55:00,23.8,21.3,30.07,WNW,295,0.0,1.0,90,0.00,,,0.00,LWC V2.11 B50,2013-03-14 01:55:00,
2013-03-13 22:00:00,23.8,21.3,30.07,WNW,283,1.0,2.0,90,0.00,,,0.00,LWC V2.11 B50,2013-03-14 02:00:00,
2013-03-13 22:05:00,23.9,21.4,30.07,WNW,302,0.0,3.0,90,0.00,,,0.00,LWC V2.11 B50,2013-03-14 02:05:00,
2013-03-13 22:10:00,24.0,21.5,30.07,WNW,283,0.0,3.0,90,0.00,,,0.00,LWC V2.11 B50,2013-03-14 02:10:00,
2013-03-13 22:15:00,24.1,21.6,30.07,WNW,283,3.0,3.0,90,0.00,,,0.00,LWC V2.11 B50,2013-03-14 02:15:00,
2013-03-13 22:20:00,24.2,21.7,30.07,West,277,1.0,1.0,90,0.00,,,0.00,LWC V2.11 B50,2013-03-14 02:20:00,
2013-03-13 22:25:00,24.3,21.8,30.08,West,274,1.0,1.0,90,0.00,,,0.00,LWC V2.11 B50,2013-03-14 02:25:00,
2013-03-13 22:31:00,24.5,21.7,30.07,WSW,245,4.0,6.0,89,0.00,,,0.00,LWC V2.11 B50,2013-03-14 02:31:00,
2013-03-13 22:36:00,24.6,21.8,30.07,WNW,293,7.0,8.0,89,0.00,,,0.00,LWC V2.11 B50,2013-03-14 02:36:00,
2013-03-13 22:42:00,24.7,21.9,30.07,WSW,251,2.0,4.0,89,0.00,,,0.00,LWC V2.11 B50,2013-03-14 02:42:00,
2013-03-13 22:47:00,24.8,22.0,30.07,WNW,300,1.0,6.0,89,0.00,,,0.00,LWC V2.11 B50,2013-03-14 02:47:00,
2013-03-13 22:52:00,25.0,22.2,30.08,NW,314,1.0,8.0,89,0.00,,,0.00,LWC V2.11 B50,2013-03-14 02:52:00,
2013-03-13 22:57:00,25.1,22.1,30.08,West,280,5.0,6.0,88,0.00,,,0.00,LWC V2.11 B50,2013-03-14 02:57:00,
2013-03-13 23:02:00,25.3,22.3,30.08,West,274,4.0,7.0,88,0.00,,,0.00,LWC V2.11 B50,2013-03-14 03:02:00,
2013-03-13 23:07:00,25.4,22.4,30.08,WNW,287,1.0,5.0,88,0.00,,,0.00,LWC V2.11 B50,2013-03-14 03:07:00,
2013-03-13 23:12:00,25.5,22.5,30.08,WNW,288,2.0,10.0,88,0.00,,,0.00,LWC V2.11 B50,2013-03-14 03:12:00,
2013-03-13 23:17:00,25.6,22.3,30.08,West,274,4.0,7.0,87,0.00,,,0.00,LWC V2.11 B50,2013-03-14 03:17:00,
2013-03-13 23:23:00,25.8,22.2,30.07,WNW,295,1.0,8.0,86,0.00,,,0.00,LWC V2.11 B50,2013-03-14 03:23:00,
2013-03-13 23:28:00,26.0,21.8,30.07,NNW,337,8.0,9.0,84,0.00,,,0.00,LWC V2.11 B50,2013-03-14 03:28:00,
2013-03-13 23:33:00,26.4,20.8,30.08,WNW,283,2.0,10.0,79,0.00,,,0.00,LWC V2.11 B50,2013-03-14 03:33:00,
2013-03-13 23:38:00,26.5,20.3,30.08,NNW,336,9.0,9.0,77,0.00,,,0.00,LWC V2.11 B50,2013-03-14 03:38:00,
2013-03-13 23:43:00,26.8,19.3,30.08,WNW,303,2.0,10.0,73,0.00,,,0.00,LWC V2.11 B50,2013-03-14 03:43:00,
2013-03-13 23:48:00,27.0,18.5,30.08,NNW,330,5.0,12.0,70,0.00,,,0.00,LWC V2.11 B50,2013-03-14 03:48:00,
2013-03-13 23:53:00,27.0,17.9,30.08,NNW,335,7.0,10.0,68,0.00,,,0.00,LWC V2.11 B50,2013-03-14 03:53:00,
2013-03-13 23:58:00,27.0,17.5,30.08,WNW,296,4.0,13.0,67,0.00,,,0.00,LWC V2.11 B50,2013-03-14 03:58:00,